TimeEDT,TemperatureF,Dew PointF,Humidity,Sea Level PressureIn,VisibilityMPH,Wind Direction,Wind SpeedMPH,Gust SpeedMPH,PrecipitationIn,Events,Conditions,WindDirDegrees,DateUTC
12:25 AM,69.8,66.2,88,29.81,4.0,South,5.8,-,N/A,,Overcast,190,2013-09-21 04:25:00
12:38 AM,69.8,68.0,94,29.81,4.0,SSW,6.9,-,N/A,,Overcast,200,2013-09-21 04:38:00
12:51 AM,70.0,66.9,90,29.79,4.0,West,9.2,-,N/A,,Overcast,270,2013-09-21 04:51:00
1:27 AM,69.8,66.2,88,29.80,6.0,SW,6.9,-,0.01,,Light Drizzle,220,2013-09-21 05:27:00
1:51 AM,69.1,66.9,93,29.77,7.0,SSW,5.8,-,0.01,,Overcast,200,2013-09-21 05:51:00
2:51 AM,69.1,66.0,90,29.75,8.0,SSW,5.8,-,N/A,,Overcast,210,2013-09-21 06:51:00
3:51 AM,69.1,64.9,87,29.73,8.0,SSW,3.5,-,0.00,Rain,Light Rain,200,2013-09-21 07:51:00
4:51 AM,68.0,64.9,90,29.71,8.0,SSW,3.5,-,0.00,Rain,Light Rain,200,2013-09-21 08:51:00
5:51 AM,68.0,66.0,93,29.68,5.0,SSE,5.8,-,0.00,,Overcast,160,2013-09-21 09:51:00
6:18 AM,69.8,66.2,88,29.70,3.0,South,11.5,17.3,0.00,Rain,Light Rain,170,2013-09-21 10:18:00
6:51 AM,69.1,66.0,90,29.67,5.0,South,12.7,20.7,0.00,Rain,Light Rain,180,2013-09-21 10:51:00
7:09 AM,69.8,64.4,83,29.70,3.0,SW,18.4,25.3,0.01,Rain-Thunderstorm,Thunderstorms and Rain,220,2013-09-21 11:09:00
7:22 AM,66.2,64.4,94,29.71,3.0,WSW,12.7,24.2,0.05,Rain-Thunderstorm,Thunderstorms and Rain,250,2013-09-21 11:22:00
7:51 AM,66.0,64.0,93,29.69,5.0,SW,3.5,-,0.08,Rain-Thunderstorm,Light Thunderstorms and Rain,220,2013-09-21 11:51:00
8:11 AM,66.2,64.4,94,29.68,1.5,ENE,5.8,-,0.01,Rain,Light Rain,60,2013-09-21 12:11:00
8:24 AM,64.4,62.6,94,29.71,0.8,WNW,16.1,21.9,0.04,Rain,Rain,290,2013-09-21 12:24:00
8:51 AM,61.0,60.1,97,29.70,3.0,North,6.9,-,0.57,Rain,Light Rain,360,2013-09-21 12:51:00
9:19 AM,60.8,59.0,94,29.73,1.5,North,3.5,-,0.00,Rain,Rain,350,2013-09-21 13:19:00
9:44 AM,60.8,59.0,94,29.73,4.0,NE,8.1,-,0.02,Rain,Rain,40,2013-09-21 13:44:00
9:51 AM,61.0,59.0,93,29.72,3.0,NE,6.9,-,0.03,Rain,Rain,50,2013-09-21 13:51:00
10:39 AM,60.8,60.8,100,29.73,4.0,ESE,5.8,-,0.05,Rain,Rain,110,2013-09-21 14:39:00
10:51 AM,61.0,60.1,97,29.71,6.0,ESE,5.8,-,0.06,Rain,Light Rain,120,2013-09-21 14:51:00
11:34 AM,60.8,59.0,94,29.73,10.0,ESE,6.9,-,0.03,Rain,Light Rain,120,2013-09-21 15:34:00
11:51 AM,61.0,60.1,97,29.71,8.0,ESE,5.8,-,0.04,Rain,Light Rain,120,2013-09-21 15:51:00
12:51 PM,61.0,59.0,93,29.69,3.0,SE,6.9,-,0.06,Rain,Rain,130,2013-09-21 16:51:00
1:35 PM,60.8,59.0,94,29.71,1.5,SE,5.8,-,0.07,Rain,Heavy Rain,130,2013-09-21 17:35:00
1:51 PM,61.0,59.0,93,29.68,2.0,ESE,8.1,-,0.11,Rain,Rain,120,2013-09-21 17:51:00
2:36 PM,60.8,57.2,88,29.70,1.0,South,4.6,-,0.07,Rain,Light Rain,190,2013-09-21 18:36:00
2:51 PM,60.1,57.9,93,29.69,3.0,West,13.8,20.7,0.07,Rain,Light Rain,260,2013-09-21 18:51:00
3:51 PM,62.1,59.0,90,29.70,10.0,West,3.5,-,0.00,,Overcast,280,2013-09-21 19:51:00
4:35 PM,62.6,59.0,88,29.72,10.0,WSW,5.8,-,0.01,,Mostly Cloudy,250,2013-09-21 20:35:00
4:51 PM,64.0,59.0,84,29.71,10.0,West,4.6,-,0.01,,Mostly Cloudy,270,2013-09-21 20:51:00
5:51 PM,66.0,57.0,73,29.71,10.0,WNW,8.1,-,N/A,,Scattered Clouds,290,2013-09-21 21:51:00
6:51 PM,63.0,55.9,78,29.73,10.0,WNW,4.6,-,N/A,,Mostly Cloudy,300,2013-09-21 22:51:00
7:33 PM,59.0,57.2,94,29.76,4.0,NNW,12.7,-,0.02,Rain,Light Rain,330,2013-09-21 23:33:00
7:51 PM,59.0,55.9,90,29.76,10.0,NNW,9.2,-,0.03,,Mostly Cloudy,340,2013-09-21 23:51:00
8:21 PM,57.2,55.4,94,29.78,10.0,North,6.9,-,N/A,,Mostly Cloudy,350,2013-09-22 00:21:00
8:36 PM,57.2,55.4,94,29.79,10.0,NNW,4.6,-,N/A,,Mostly Cloudy,330,2013-09-22 00:36:00
8:51 PM,57.0,55.9,96,29.79,10.0,NW,3.5,-,N/A,,Mostly Cloudy,320,2013-09-22 00:51:00
9:15 PM,55.4,55.4,100,29.79,10.0,NW,3.5,-,N/A,,Mostly Cloudy,310,2013-09-22 01:15:00
9:51 PM,55.0,54.0,96,29.80,7.0,Calm,Calm,-,N/A,,Scattered Clouds,0,2013-09-22 01:51:00
10:29 PM,51.8,51.8,100,29.81,0.8,Calm,Calm,-,N/A,Fog,Shallow Fog,0,2013-09-22 02:29:00
10:51 PM,53.1,52.0,96,29.81,0.8,Calm,Calm,-,N/A,Fog,Shallow Fog,0,2013-09-22 02:51:00
11:20 PM,51.8,51.8,100,29.81,0.5,Calm,Calm,-,N/A,Fog,Fog,0,2013-09-22 03:20:00
11:51 PM,53.1,52.0,96,29.81,1.5,Calm,Calm,-,N/A,Fog,Shallow Fog,0,2013-09-22 03:51:00
11:58 PM,53.6,53.6,100,29.81,6.0,Calm,Calm,-,N/A,Fog,Shallow Fog,0,2013-09-22 03:58:00